Aviation Digital Data Service (ADDS)

Output produced by METARs form (1826 UTC 16 August 2018)
found at http://www.aviationweather.gov/adds/metars/
 
DAUA 161800Z 29004KT CAVOK 43/03 Q1008
TAF DAUA 161700Z 1618/1718 02008KT CAVOK 
     PROB30 
     TEMPO 1620/1622 02020KT 5000 DRSA 
     BECMG 1703/1706 10010KT 
     BECMG 1712/1716 22010KT
       
DABB 161800Z 03010KT 9999 FEW023 27/20 Q1012
TAF DABB 161700Z 1618/1718 01015KT 9999 FEW026 SCT030 
     PROB30 
     TEMPO 1618/1621 FEW020TCU 
     BECMG 1620/1622 VRB02KT 
     PROB30 
     TEMPO 1700/1706 2000 BR BKN010 
     BECMG 1710/1712 34012KT
       
DABT 161800Z 23006KT 6000 TS SHRA FEW020CB BKN023TCU 22/17 Q1017
TAF DABT 161700Z 1618/1718 28014KT 9999 FEW020TCU SCT033 
     PROB30 
     TEMPO 1618/1621 5000 -TSRA FEW026CB BKN030 
     BECMG 1620/1622 06008KT 
     BECMG 1706/1708 34014KT 
     TEMPO 1712/1718 4000 TSRA FEW023CB BKN030
       
DAOR 161805Z 35014KT 6000 TSRA FEW030CB SCT033 30/09 Q1017
TAF DAOR 161700Z 1618/1703 34016KT 3000 DRSA SCT033 SCT100 
     TEMPO 1618/1620 34020G30KT 1500 FEW030CB 
     PROB40 
     TEMPO 1618/1621 5000 -TSRA FEW030CB
       
DAAE 161800Z 08005KT 9999 FEW023 SCT200 27/21 Q1014
TAF DAAE 161700Z 1618/1718 03014KT 9999 FEW020 SCT200 
     PROB40 
     TEMPO 1618/1621 RA FEW020TCU BKN030 
     BECMG 1620/1622 26008KT 
     PROB30 
     TEMPO 1700/1705 VRB02KT 2000 BR BKN010 
     BECMG 1706/1708 01012KT
       
DAUB 161800Z 25009KT 9999 SCT033TCU SCT100 35/19 Q1012
TAF DAUB 161700Z 1618/1718 18012KT 9999 SCT033TCU SCT100 
     PROB30 
     TEMPO 1618/1620 33015G25KT 3000 -TSRA FEW030CB BKN030 
     BECMG 1621/1623 28006KT 
     BECMG 1706/1708 12015KT
       
DATM 161800Z 14010KT 9999 SCT046 40/11 Q1009
TAF DATM 161700Z 1618/1703 20008KT 8000 SCT046 
     PROB40 
     TEMPO 1618/1620 FEW040TCU 
     PROB30 
     TEMPO 1621/1702 22015G25KT 5000 -TSRA FEW040CB SCT046TCU
       
DAAD 161800Z 16010KT 7000 TS BKN030 SCT033CB 26/19 Q1014
TAF DAAD 161700Z 1618/1703 20010KT 8000 BKN033 
     TEMPO 1618/1624 22015G25KT 5000 -TSRA FEW030CB 
     PROB30 
     TEMPO 1618/1621 22020G30KT 3000 TSRA SCT030CB
       
DAOI 161800Z 36010KT 9999 FEW026 FEW030CB 32/19 Q1012
TAF DAOI 161700Z 1618/1718 32010KT 9999 FEW026 FEW030CB 
     BECMG 1618/1621 VRB02KT 
     PROB30 
     TEMPO 1702/1708 4000 BR SCT010 
     BECMG 1709/1712 36012KT
       
DABC 161800Z 35007KT 9999 FEW026TCU SCT200 26/16 Q1016
TAF DABC 161700Z 1618/1718 02014KT 9999 FEW026 FEW030TCU 
     PROB30 
     TEMPO 1618/1621 4000 -TSRA FEW020CB BKN030 
     BECMG 1620/1622 VRB02KT 
     BECMG 1706/1708 35012KT 
     TEMPO 1712/1718 5000 -TSRA FEW030CB BKN050
       
DAAG 161800Z 09009KT 9999 FEW026 27/20 Q1014
TAF DAAG 161700Z 1618/1718 04010KT 9999 FEW026 SCT100 
     PROB40 
     TEMPO 1618/1620 FEW026TCU 
     BECMG 1619/1622 VRB02KT 
     BECMG 1708/1711 34010KT 
     PROB30 
     TEMPO 1709/1712 SCT023TCU
       
DAAJ 161800Z 12008KT 9999 SCT046 SCT100 36/13 Q1016
TAF DAAJ 161700Z 1618/1718 06010KT 9999 FEW046 SCT100 
     PROB30 
     TEMPO 1618/1624 FEW046TCU 
     BECMG 1708/1711 22010KT 
     PROB30 
     TEMPO 1714/1718 FEW040CB
       
DAUE 161800Z 05007KT 9999 SCT040 SCT040 34/13 Q1012
DAUO 161800Z 23003KT 9999 FEW030 36/18 Q1010
TAF DAUO 161700Z 1618/1703 10010KT 9999 FEW030 
     PROB30 
     TEMPO 1618/1621 FEW030TCU
       
DAUG 161800Z 15009KT 8000 BKN033 SCT090 36/08 Q1013
TAF DAUG 161700Z 1618/1718 22010KT 9999 SCT033 BKN090 
     PROB30 
     TEMPO 1618/1624 22015G25KT 5000 -TSRA FEW030CB 
     BECMG 1621/1624 08012KT 
     PROB30 
     TEMPO 1700/1706 4000 HZ FEW033CB 
     PROB40 
     TEMPO 1708/1714 06015G30KT 3000 DRSA FEW040CB
       
DAUH 161800Z 03004KT 9999 BKN033 37/17 Q1011
TAF DAUH 161700Z 1618/1718 04010KT 9999 SCT040 SCT100 
     PROB30 
     TEMPO 1618/1624 SCT033TCU 
     BECMG 1700/1703 11010KT 
     BECMG 1708/1711 17012KT
       
DAAP 161800Z 03016KT 9999 FEW040TCU SCT046 39/11 Q1011
TAF DAAP 161700Z 1618/1703 02010KT 8000 SCT046 SCT100 
     TEMPO 1618/1620 FEW040TCU
       
DAUZ 161800Z 33009KT 9999 FEW040TCU SCT080 39/07 Q1011
TAF DAUZ 161700Z 1618/1718 30008KT 9999 FEW040 SCT080 
     PROB30 
     TEMPO 1618/1620 FEW040TCU 
     BECMG 1623/1702 04010KT 
     BECMG 1708/1711 10010KT
       
DAUI 161800Z 26007KT 8000 NSC 43/04 Q1007
TAF DAUI 161700Z 1618/1718 26006KT 8000 NSC 
     BECMG 1700/1703 08010KT 
     PROB30 
     TEMPO 1703/1706 10020KT 5000 DRSA FEW046TCU 
     BECMG 1708/1711 22012KT 
     PROB30 
     TEMPO 1710/1713 22022KT 4000 DRSA
       
DAAV 161800Z 01003KT 9999 FEW020 FEW023TCU 28/21 Q1013
TAF DAAV 161700Z 1618/1718 01014KT 9999 FEW020 FEW023TCU 
     PROB30 
     TEMPO 1618/1621 5000 -TSRA FEW020CB BKN030 
     BECMG 1620/1622 28008KT 
     PROB30 
     TEMPO 1700/1705 VRB02KT 2000 BR BKN010 
     BECMG 1706/1708 35012KT
       
DAUL 161800Z 06016KT 7000 SCT030 27/15 Q1016
TAF DAUL 161700Z 1618/1703 06014KT 8000 SCT030 BKN100 
     PROB40 
     TEMPO 1618/1624 06015G25KT 5000 -TSRA FEW026CB 
     PROB30 
     TEMPO 1621/1623 3000 TSRA SCT030CB
       
DAOV 161800Z 35014KT 9999 FEW030CB SCT230 29/19 Q1015
TAF DAOV 161700Z 1618/1703 35013KT 9999 FEW030CB SCT230 
     PROB30 
     TEMPO 1618/1624 -TSRA SCT020 FEW026CB BKN100 
     BECMG 1700/1703 VRB02KT
       
DAAY 161800Z 06008KT 6000 SCT030 BKN100 26/10 Q1022
TAF DAAY 161700Z 1618/1703 06010KT 6000 SCT030 BKN100 
     PROB30 
     TEMPO 1618/1624 -TSRA SCT020 FEW026CB BKN100 
     BECMG 1700/1703 VRB02KT
       
DAOO 161800Z 36009KT 9999 FEW016 SCT023 27/22 Q1013
TAF DAOO 161700Z 1618/1718 35014KT 9999 FEW016 
     BECMG 1619/1621 VBR02KT 
     PROB30 
     TEMPO 1702/1708 4000 BR SCT010 
     BECMG 1709/1712 36012KT
       
DAOL 161700Z 34016KT 8000 SCT030 29/23 Q1013
DAUU 161800Z 00000KT 8000 FEW033TCU SCT040 BKN100 37/10 Q1010
TAF DAUU 161700Z 1618/1703 17008KT 8000 SCT040 BKN100 
     TEMPO 1618/1621 FEW033TCU
       
DAAS 161800Z 34011KT 9999 SCT030 FEW033CB SCT233 26/11 Q1018
TAF DAAS 161700Z 1618/1718 32014KT 9999 FEW020 FEW023TCU SCT200 
     PROB30 
     TEMPO 1618/1624 3000 -TSRA FEW023CB BKN030 
     BECMG 1620/1622 VRB02KT 
     BECMG 1706/1708 27012KT 
     TEMPO 1713/1718 FEW023CB SCT100
       
DAAT 161800Z 01006KT 8000 FEW040CB SCT046 31/10 Q1020
TAF DAAT 161700Z 1618/1718 06010KT 6000 SCT046 SCT100 
     TEMPO 1618/1704 FEW040CB 
     PROB30 
     TEMPO 1618/1621 06015G25KT 5000 -TSRA FEW033CB 
     BECMG 1709/1712 22010KT
       
DABS 161800Z 28004KT 9999 FEW030TCU BKN200 27/13 Q1017
TAF DABS 161700Z 1618/1718 32014KT 9999 FEW030TCU SCT200 
     PROB30 
     TEMPO 1618/1703 3000 TSRA FEW030CB BKN030 
     BECMG 1622/1624 VRB02KT 
     BECMG 1706/1708 34014KT 
     TEMPO 1712/1718 5000 -TSRA FEW023CB BKN030
       
DAOB 161800Z 34007KT 9999 FEW026TCU SCT220 29/14 Q1017
TAF DAOB 161700Z 1618/1718 35010KT 9999 FEW026 SCT100 
     PROB30 
     TEMPO 1618/1620 35015G25KT 5000 -TSRA FEW026CB 
     PROB40 
     TEMPO 1712/1718 FEW026CB
       
DAFH 161800Z 03022KT 5000 DRSA FEW026CB SCT030 26/15 Q1016
TAF DAFH 161700Z 1618/1703 20014KT 8000 SCT030 SCT100 
     PROB40 
     TEMPO 1618/1621 20015G25KT 5000 -TSRA FEW026CB
       
DAUT 161800Z 09005KT 8000 NSC 40/09 Q1009
TAF DAUT 161700Z 1618/1703 05008KT 8000 NSC 
     PROB30 
     TEMPO 1618/1621 4000 HZ
       
DAOF 161800Z 27017KT CAVOK 38/10 Q1009
TAF DAOF 161700Z 1618/1703 30014KT CAVOK 
     PROB40 
     TEMPO 1618/1622 32015G25KT
       
DAON 161800Z 34010KT 9999 SCT026 27/20 Q1015
TAF DAON 161700Z 1618/1718 34010KT 9999 SCT026 
     BECMG 1619/1621 VBR02KT 
     PROB30 
     TEMPO 1702/1708 4000 BR SCT010 
     BECMG 1709/1712 36012KT
       
DAUK 161800Z 00000KT 9999 SCT040 35/18 Q1011
TAF DAUK 161700Z 1618/1703 08010KT 9999 SCT040 
     PROB30 
     TEMPO 1618/1621 FEW033TCU